Time;durP1;ratioP1;P1;durP2;ratioP2;P2;SDS_P1;SDS_P2;PMS_P1;PMS_P2;Temp;Humidity;BMP_temperature;BMP_pressure;BME280_temperature;BME280_humidity;BME280_pressure;Samples;Min_cycle;Max_cycle;Signal;HPM_P1;HPM_P2
2021/03/23 00:00:54;;;;;;;6.23;3.67;;;5.70;91.50;;;;;;5023862;28;20053;-72
2021/03/23 00:03:27;;;;;;;9.50;3.93;;;5.70;91.50;;;;;;5027982;28;20056;-73
2021/03/23 00:05:53;;;;;;;6.23;3.27;;;5.70;91.50;;;;;;5043122;28;20152;-72
2021/03/23 00:08:38;;;;;;;6.67;3.20;;;5.70;91.50;;;;;;5028786;28;20136;-72
2021/03/23 00:11:13;;;;;;;9.67;3.87;;;5.70;91.60;;;;;;5039119;28;20159;-72
2021/03/23 00:13:41;;;;;;;6.93;3.27;;;5.70;91.60;;;;;;5026173;28;20231;-73
2021/03/23 00:16:08;;;;;;;6.60;3.60;;;5.70;91.60;;;;;;5041659;28;20038;-72
2021/03/23 00:18:34;;;;;;;7.57;3.20;;;5.70;91.60;;;;;;5023165;28;20041;-72
2021/03/23 00:21:00;;;;;;;7.93;3.33;;;5.70;91.60;;;;;;5034955;28;20053;-72
2021/03/23 00:23:26;;;;;;;8.10;3.07;;;5.70;91.70;;;;;;5027933;28;20524;-71
2021/03/23 00:25:52;;;;;;;5.53;2.87;;;5.70;91.80;;;;;;5045207;28;20044;-71
2021/03/23 00:28:22;;;;;;;8.50;3.03;;;5.70;91.80;;;;;;5057494;28;20060;-71
2021/03/23 00:30:48;;;;;;;6.27;2.90;;;5.70;91.80;;;;;;5032038;28;20047;-72
2021/03/23 00:33:14;;;;;;;7.50;3.23;;;5.70;91.80;;;;;;5026942;28;20045;-71
2021/03/23 00:35:40;;;;;;;9.10;3.23;;;5.80;91.80;;;;;;5047575;28;20047;-72
2021/03/23 00:38:09;;;;;;;6.17;2.40;;;5.70;91.80;;;;;;5008980;28;20145;-72
2021/03/23 00:40:36;;;;;;;5.70;3.33;;;5.70;91.80;;;;;;5047801;28;20130;-72
2021/03/23 00:43:04;;;;;;;6.67;3.10;;;5.70;91.90;;;;;;5026861;28;20072;-71
2021/03/23 00:45:32;;;;;;;5.30;2.63;;;5.70;91.90;;;;;;5046769;28;20502;-72
2021/03/23 00:47:58;;;;;;;6.43;2.93;;;5.70;91.90;;;;;;5043708;28;20118;-72
2021/03/23 00:50:24;;;;;;;8.57;3.07;;;5.70;92.00;;;;;;5044221;28;20033;-72
2021/03/23 00:52:50;;;;;;;9.13;3.00;;;5.70;92.00;;;;;;5045350;28;20095;-72
2021/03/23 00:55:16;;;;;;;6.60;2.93;;;5.70;92.00;;;;;;5045184;28;20041;-72
2021/03/23 00:57:42;;;;;;;5.87;2.90;;;5.70;92.10;;;;;;5021386;28;20049;-72
2021/03/23 01:00:14;;;;;;;5.90;2.70;;;5.70;92.10;;;;;;5031650;28;20049;-72
2021/03/23 01:02:42;;;;;;;4.43;2.47;;;5.70;92.10;;;;;;5046528;28;20040;-71
2021/03/23 01:05:09;;;;;;;7.27;2.90;;;5.70;92.10;;;;;;5031644;28;20041;-72
2021/03/23 01:07:35;;;;;;;5.87;3.03;;;5.70;92.10;;;;;;5043249;28;20072;-71
2021/03/23 01:10:02;;;;;;;9.27;3.13;;;5.70;92.10;;;;;;5044187;28;20075;-71
2021/03/23 01:12:28;;;;;;;7.57;3.00;;;5.70;92.10;;;;;;5037287;28;20045;-71
2021/03/23 01:14:54;;;;;;;8.30;3.53;;;5.70;92.10;;;;;;5045277;28;20836;-72
2021/03/23 01:17:20;;;;;;;6.53;3.40;;;5.70;92.10;;;;;;5025574;28;20068;-72
2021/03/23 01:19:46;;;;;;;8.87;3.93;;;5.70;92.20;;;;;;5029367;28;20659;-73
2021/03/23 01:22:12;;;;;;;10.80;4.37;;;5.70;92.20;;;;;;5027944;28;20419;-73
2021/03/23 01:24:38;;;;;;;9.83;3.77;;;5.70;92.20;;;;;;5044495;28;20448;-72
2021/03/23 01:27:04;;;;;;;8.80;3.67;;;5.70;92.20;;;;;;5039252;28;20036;-72
2021/03/23 01:29:31;;;;;;;8.10;3.37;;;5.70;92.20;;;;;;5032061;28;20029;-72
2021/03/23 01:31:57;;;;;;;8.97;3.70;;;5.70;92.20;;;;;;5041691;28;20045;-72
2021/03/23 01:34:23;;;;;;;8.97;3.50;;;5.70;92.30;;;;;;5044456;28;20120;-72
2021/03/23 01:36:49;;;;;;;5.97;3.17;;;5.80;92.30;;;;;;5039861;28;20119;-73
2021/03/23 01:39:15;;;;;;;9.07;4.10;;;5.70;92.40;;;;;;5032661;28;20064;-72
2021/03/23 01:41:42;;;;;;;9.47;3.97;;;5.80;92.40;;;;;;5037931;28;20049;-72
2021/03/23 01:44:08;;;;;;;7.07;4.10;;;5.80;92.50;;;;;;5058749;28;20057;-72
2021/03/23 01:46:40;;;;;;;7.60;3.70;;;5.80;92.50;;;;;;5048508;28;20078;-72
2021/03/23 01:49:17;;;;;;;7.93;4.37;;;5.80;92.60;;;;;;5049840;28;20075;-72
2021/03/23 01:51:51;;;;;;;7.00;4.17;;;5.80;92.60;;;;;;5065448;28;20052;-72
2021/03/23 01:54:27;;;;;;;11.13;4.50;;;5.80;92.70;;;;;;5063029;28;20503;-72
2021/03/23 01:56:56;;;;;;;11.10;4.77;;;5.70;92.70;;;;;;5063693;28;20036;-72
2021/03/23 01:59:23;;;;;;;10.17;4.70;;;5.70;92.70;;;;;;5045918;28;20032;-72
2021/03/23 02:01:51;;;;;;;8.13;5.03;;;5.70;92.70;;;;;;5049354;28;20598;-72
2021/03/23 02:04:17;;;;;;;9.73;5.43;;;5.70;92.70;;;;;;5047297;28;20041;-72
2021/03/23 02:06:45;;;;;;;9.40;5.60;;;5.70;92.70;;;;;;5020722;28;20036;-72
2021/03/23 02:09:33;;;;;;;10.53;5.20;;;5.60;92.60;;;;;;5063190;28;20403;-72
2021/03/23 02:12:08;;;;;;;10.07;6.00;;;5.60;92.60;;;;;;5056436;28;20114;-72
2021/03/23 02:14:53;;;;;;;9.10;5.20;;;5.50;92.60;;;;;;5062879;28;20032;-72
2021/03/23 02:17:23;;;;;;;10.77;5.73;;;5.50;92.70;;;;;;5064105;28;20047;-72
2021/03/23 02:19:57;;;;;;;;;;;5.50;92.70;;;;;;5054146;28;20048;-72
2021/03/23 02:22:33;;;;;;;8.30;5.10;;;5.40;92.70;;;;;;5076941;28;20013;-72
2021/03/23 02:25:02;;;;;;;9.23;5.80;;;5.40;92.70;;;;;;5037769;28;20056;-72
2021/03/23 02:27:29;;;;;;;8.77;5.33;;;5.40;92.80;;;;;;5027650;28;20045;-72
2021/03/23 02:29:58;;;;;;;10.10;5.47;;;5.40;92.80;;;;;;5045574;28;20803;-72
2021/03/23 02:32:24;;;;;;;12.30;5.83;;;5.30;92.80;;;;;;5061226;28;20044;-72
2021/03/23 02:34:50;;;;;;;9.83;5.73;;;5.30;92.90;;;;;;5065000;28;20399;-73
2021/03/23 02:37:17;;;;;;;11.33;5.80;;;5.20;92.80;;;;;;5043637;28;20044;-72
2021/03/23 02:39:43;;;;;;;9.67;5.63;;;5.20;92.90;;;;;;5064504;28;20466;-73
2021/03/23 02:42:11;;;;;;;10.67;6.10;;;5.20;92.90;;;;;;5023709;28;20092;-73
2021/03/23 02:44:41;;;;;;;10.90;6.17;;;5.10;93.00;;;;;;5061421;28;20052;-73
2021/03/23 02:47:08;;;;;;;;;;;5.00;93.10;;;;;;5062690;28;20403;-72
2021/03/23 02:49:34;;;;;;;11.13;6.10;;;5.00;93.10;;;;;;5048245;28;20034;-73
2021/03/23 02:52:02;;;;;;;10.77;5.70;;;5.00;93.00;;;;;;5046041;28;20036;-78
2021/03/23 02:54:28;;;;;;;8.23;4.90;;;5.00;93.10;;;;;;5047725;28;20450;-78
2021/03/23 02:56:54;;;;;;;13.53;5.80;;;5.00;93.10;;;;;;5044898;28;20037;-78
2021/03/23 02:59:19;;;;;;;10.33;6.00;;;4.90;93.10;;;;;;5027817;28;20037;-78
2021/03/23 03:01:45;;;;;;;9.73;5.93;;;4.80;93.10;;;;;;5059718;28;20495;-78
2021/03/23 03:04:12;;;;;;;12.00;6.00;;;4.80;93.20;;;;;;5034952;28;20040;-78
2021/03/23 03:06:38;;;;;;;10.00;5.77;;;4.70;93.20;;;;;;5046657;28;20059;-79
2021/03/23 03:09:04;;;;;;;8.70;6.07;;;4.70;93.20;;;;;;5068513;28;20566;-78
2021/03/23 03:11:31;;;;;;;8.77;6.30;;;4.60;93.30;;;;;;5031226;28;20129;-78
2021/03/23 03:13:57;;;;;;;13.83;7.07;;;4.60;93.40;;;;;;5067441;28;20036;-79
2021/03/23 03:16:23;;;;;;;10.93;6.53;;;4.60;93.50;;;;;;5050022;28;20117;-78
2021/03/23 03:18:49;;;;;;;10.37;6.13;;;4.60;93.50;;;;;;5053654;28;20048;-78
2021/03/23 03:21:15;;;;;;;10.90;6.53;;;4.50;93.60;;;;;;5069415;28;20459;-78
2021/03/23 03:23:41;;;;;;;11.00;6.60;;;4.50;93.60;;;;;;5047246;28;20100;-79
2021/03/23 03:26:07;;;;;;;13.70;7.00;;;4.40;93.60;;;;;;5068395;28;20135;-78
2021/03/23 03:28:34;;;;;;;12.57;6.87;;;4.40;93.60;;;;;;5017300;28;20052;-79
2021/03/23 03:31:00;;;;;;;12.27;6.40;;;4.30;93.60;;;;;;5048581;28;20048;-78
2021/03/23 03:33:26;;;;;;;12.77;6.47;;;4.30;93.80;;;;;;5025492;28;20199;-78
2021/03/23 03:35:53;;;;;;;13.13;6.33;;;4.30;93.80;;;;;;5045233;28;20086;-78
2021/03/23 03:38:21;;;;;;;10.67;6.10;;;4.30;93.70;;;;;;5048228;28;20045;-78
2021/03/23 03:40:58;;;;;;;8.80;6.27;;;4.10;93.50;;;;;;5061390;28;20115;-78
2021/03/23 03:43:26;;;;;;;11.33;6.50;;;4.00;93.50;;;;;;5044365;28;20577;-78
2021/03/23 03:45:54;;;;;;;16.80;8.00;;;3.90;93.60;;;;;;5048375;28;20494;-78
2021/03/23 03:48:19;;;;;;;13.17;7.70;;;3.90;93.70;;;;;;5038215;28;20057;-78
2021/03/23 03:50:46;;;;;;;20.13;10.60;;;3.80;93.80;;;;;;5053244;28;20064;-72
2021/03/23 03:53:13;;;;;;;18.10;10.90;;;3.80;93.90;;;;;;5041481;28;20041;-73
2021/03/23 03:55:43;;;;;;;18.70;11.00;;;3.80;94.10;;;;;;5043873;28;20232;-73
2021/03/23 03:58:09;;;;;;;18.38;11.07;;;3.90;94.20;;;;;;5043658;28;20049;-73
2021/03/23 04:00:36;;;;;;;19.60;10.33;;;3.90;94.30;;;;;;5047112;28;20041;-73
2021/03/23 04:03:05;;;;;;;18.03;11.00;;;4.00;94.50;;;;;;5042002;28;20041;-72
2021/03/23 04:05:39;;;;;;;17.97;11.77;;;4.10;94.60;;;;;;5045119;28;20128;-73
2021/03/23 04:08:08;;;;;;;20.73;11.67;;;4.10;94.50;;;;;;5042989;28;20499;-72
2021/03/23 04:10:34;;;;;;;18.90;11.90;;;4.20;94.50;;;;;;5045771;28;20036;-72
2021/03/23 04:13:00;;;;;;;19.60;12.83;;;4.10;94.40;;;;;;5045059;28;20082;-73
2021/03/23 04:15:33;;;;;;;19.30;12.73;;;4.30;94.50;;;;;;5037451;28;20040;-72
2021/03/23 04:17:59;;;;;;;20.20;12.70;;;4.20;94.40;;;;;;5047196;28;20045;-73
2021/03/23 04:20:25;;;;;;;19.13;12.27;;;4.30;94.40;;;;;;5039433;28;20033;-72
2021/03/23 04:22:52;;;;;;;19.33;12.23;;;4.30;94.50;;;;;;5047118;28;20036;-72
2021/03/23 04:25:27;;;;;;;21.90;13.70;;;4.30;94.40;;;;;;5042716;28;20037;-72
2021/03/23 04:27:54;;;;;;;18.13;12.07;;;4.40;94.50;;;;;;5043607;28;20037;-72
2021/03/23 04:30:21;;;;;;;19.43;11.90;;;4.40;94.50;;;;;;5042394;28;20064;-72
2021/03/23 04:32:49;;;;;;;17.00;11.80;;;4.40;94.50;;;;;;5043674;28;20048;-73
2021/03/23 04:35:28;;;;;;;22.20;13.13;;;4.40;94.40;;;;;;5039596;28;20037;-72
2021/03/23 04:37:54;;;;;;;21.03;12.93;;;4.50;94.40;;;;;;5042767;28;20039;-72
2021/03/23 04:40:20;;;;;;;21.67;12.40;;;4.50;94.40;;;;;;5040110;28;20040;-72
2021/03/23 04:42:46;;;;;;;19.67;13.17;;;4.60;94.40;;;;;;5044177;28;20170;-72
2021/03/23 04:45:13;;;;;;;18.27;12.60;;;4.60;94.30;;;;;;5049301;28;20119;-74
2021/03/23 04:47:39;;;;;;;19.40;13.00;;;4.60;94.30;;;;;;5043146;28;20534;-72
2021/03/23 04:50:06;;;;;;;22.07;14.13;;;4.60;94.30;;;;;;5026756;28;20045;-72
2021/03/23 04:52:32;;;;;;;18.47;12.23;;;4.60;94.30;;;;;;5032371;28;20033;-72
2021/03/23 04:54:58;;;;;;;23.70;13.80;;;4.60;94.30;;;;;;5050049;28;20128;-72
2021/03/23 04:57:24;;;;;;;16.87;12.67;;;4.60;94.30;;;;;;5047825;28;20039;-72
2021/03/23 04:59:50;;;;;;;23.23;12.67;;;4.70;94.30;;;;;;5051915;28;20044;-78
2021/03/23 05:02:16;;;;;;;22.47;14.67;;;4.60;94.20;;;;;;5031338;28;20559;-78
2021/03/23 05:04:42;;;;;;;22.70;14.33;;;4.70;94.30;;;;;;5024114;28;20084;-78
2021/03/23 05:07:08;;;;;;;19.07;14.07;;;4.70;94.30;;;;;;5057781;28;20068;-78
2021/03/23 05:09:34;;;;;;;23.07;13.93;;;4.80;94.30;;;;;;5029567;28;20045;-78
2021/03/23 05:11:59;;;;;;;25.50;16.23;;;4.80;94.30;;;;;;5049339;28;20470;-78
2021/03/23 05:14:25;;;;;;;25.17;14.57;;;4.80;94.20;;;;;;5024996;28;20033;-78
2021/03/23 05:16:51;;;;;;;23.03;15.53;;;4.80;94.10;;;;;;5048503;28;20041;-78
2021/03/23 05:19:17;;;;;;;21.87;15.33;;;4.90;94.10;;;;;;5029242;28;20484;-78
2021/03/23 05:21:43;;;;;;;22.33;15.00;;;4.90;94.10;;;;;;5050959;28;20037;-77
2021/03/23 05:24:09;;;;;;;23.33;15.80;;;4.90;94.10;;;;;;5047854;28;20056;-77
2021/03/23 05:26:35;;;;;;;23.67;14.73;;;4.90;94.10;;;;;;5051324;28;20048;-78
2021/03/23 05:29:04;;;;;;;23.67;14.53;;;4.90;94.00;;;;;;5054464;28;20040;-77
2021/03/23 05:31:32;;;;;;;24.63;15.23;;;4.90;93.90;;;;;;5024951;28;20117;-78
2021/03/23 05:33:58;;;;;;;22.37;16.00;;;5.00;93.90;;;;;;5050714;28;20049;-78
2021/03/23 05:36:24;;;;;;;26.67;16.17;;;5.00;93.90;;;;;;5029900;28;20040;-77
2021/03/23 05:38:50;;;;;;;23.83;15.93;;;5.00;93.90;;;;;;5054944;28;20623;-78
2021/03/23 05:41:28;;;;;;;25.33;15.30;;;5.00;94.00;;;;;;5053653;28;20058;-78
2021/03/23 05:44:23;;;;;;;27.40;15.53;;;5.00;94.00;;;;;;5052310;28;20037;-78
2021/03/23 05:46:49;;;;;;;24.97;14.60;;;5.00;93.90;;;;;;5052025;28;20511;-78
2021/03/23 05:49:34;;;;;;;24.87;15.17;;;5.00;93.90;;;;;;5043395;28;20094;-78
2021/03/23 05:52:14;;;;;;;24.07;14.57;;;5.10;93.80;;;;;;5060937;28;20125;-78
2021/03/23 05:54:44;;;;;;;20.77;13.67;;;5.10;93.70;;;;;;5063235;28;20045;-78
2021/03/23 05:57:37;;;;;;;22.90;14.10;;;5.10;93.70;;;;;;5041360;28;20044;-77
2021/03/23 06:00:16;;;;;;;21.93;13.83;;;5.10;93.70;;;;;;5057030;28;20044;-77
2021/03/23 06:03:20;;;;;;;22.83;14.30;;;5.10;93.60;;;;;;5055250;28;20037;-77
2021/03/23 06:05:53;;;;;;;22.40;14.43;;;5.10;93.60;;;;;;5022894;28;20133;-77
2021/03/23 06:08:27;;;;;;;22.17;13.20;;;5.20;93.60;;;;;;5063478;28;20036;-77
2021/03/23 06:11:05;;;;;;;18.70;12.83;;;5.20;93.60;;;;;;5042206;28;20237;-77
2021/03/23 06:13:42;;;;;;;21.83;13.67;;;5.20;93.60;;;;;;5059257;28;20044;-78
2021/03/23 06:16:11;;;;;;;23.10;12.93;;;5.20;93.50;;;;;;5046112;28;20153;-77
2021/03/23 06:18:52;;;;;;;26.60;12.97;;;5.20;93.40;;;;;;5059603;28;20033;-77
2021/03/23 06:21:34;;;;;;;20.63;13.43;;;5.30;93.40;;;;;;5062952;28;20525;-76
2021/03/23 06:24:25;;;;;;;21.90;12.90;;;5.30;93.30;;;;;;5063692;28;20102;-77
2021/03/23 06:27:05;;;;;;;20.50;12.87;;;5.40;93.20;;;;;;5043972;28;20402;-78
2021/03/23 06:30:00;;;;;;;22.10;13.77;;;5.30;93.10;;;;;;5062494;28;20323;-77
2021/03/23 06:32:48;;;;;;;25.80;14.17;;;5.40;93.20;;;;;;5039882;28;20040;-77
2021/03/23 06:35:28;;;;;;;22.03;13.10;;;5.40;93.10;;;;;;5042234;28;20079;-77
2021/03/23 06:37:55;;;;;;;21.63;13.13;;;5.40;93.20;;;;;;5043334;28;20044;-78
2021/03/23 06:40:24;;;;;;;24.27;14.00;;;5.40;93.10;;;;;;5061900;28;20068;-79
2021/03/23 06:42:53;;;;;;;22.50;13.73;;;5.40;93.10;;;;;;5060242;28;20075;-77
2021/03/23 06:45:27;;;;;;;23.67;14.10;;;5.50;93.00;;;;;;5046254;28;20127;-77
2021/03/23 06:47:54;;;;;;;23.03;12.57;;;5.50;93.00;;;;;;5060214;28;20032;-78
2021/03/23 06:50:29;;;;;;;21.83;13.17;;;5.50;93.10;;;;;;5047383;28;20041;-78
2021/03/23 06:53:17;;;;;;;23.13;14.77;;;5.60;92.80;;;;;;5060808;28;20149;-77
2021/03/23 06:55:45;;;;;;;20.43;13.00;;;5.70;92.80;;;;;;5061053;28;20033;-78
2021/03/23 06:58:32;;;;;;;23.03;13.87;;;5.60;92.70;;;;;;5059896;28;20045;-77
2021/03/23 07:01:18;;;;;;;21.50;13.83;;;5.70;92.60;;;;;;5062549;28;20054;-77
2021/03/23 07:03:51;;;;;;;23.77;15.00;;;5.70;92.90;;;;;;5043489;28;20032;-77
2021/03/23 07:06:31;;;;;;;22.65;15.18;;;5.80;92.80;;;;;;5064516;28;20442;-76
2021/03/23 07:09:10;;;;;;;29.38;15.45;;;5.80;92.70;;;;;;5055648;28;20036;-77
2021/03/23 07:11:53;;;;;;;25.47;16.57;;;5.90;92.80;;;;;;5062586;28;20047;-78
2021/03/23 07:14:25;;;;;;;25.43;15.90;;;5.80;92.90;;;;;;5061545;28;20131;-79
2021/03/23 07:17:26;;;;;;;28.70;16.60;;;5.90;92.90;;;;;;5062692;28;20851;-78
2021/03/23 07:19:54;;;;;;;28.23;16.45;;;5.90;92.80;;;;;;5059087;28;20066;-78
2021/03/23 07:22:42;;;;;;;29.73;17.53;;;5.90;92.80;;;;;;5043730;28;20491;-78
2021/03/23 07:25:33;;;;;;;28.17;17.20;;;5.90;92.90;;;;;;5047387;28;20043;-77
2021/03/23 07:28:32;;;;;;;32.60;18.80;;;6.00;92.80;;;;;;5060360;28;20052;-79
2021/03/23 07:31:04;;;;;;;32.30;18.27;;;6.00;92.70;;;;;;5035920;28;20052;-78
2021/03/23 07:34:07;;;;;;;30.27;18.67;;;6.10;92.70;;;;;;5061455;28;20067;-78
2021/03/23 07:36:35;;;;;;;33.03;18.50;;;6.10;92.70;;;;;;5061740;28;20040;-78
2021/03/23 07:39:29;;;;;;;31.40;19.73;;;6.20;92.70;;;;;;5042872;28;20152;-78
2021/03/23 07:42:07;;;;;;;32.07;21.63;;;6.30;92.60;;;;;;5048236;28;20033;-80
2021/03/23 07:44:52;;;;;;;33.40;21.60;;;6.30;92.60;;;;;;5036340;28;20072;-79
2021/03/23 07:47:44;;;;;;;42.90;24.80;;;6.40;92.60;;;;;;5044558;28;20072;-78
2021/03/23 07:50:31;;;;;;;41.67;25.77;;;6.40;92.70;;;;;;5044471;28;20041;-79
2021/03/23 07:53:07;;;;;;;46.00;26.90;;;6.50;92.80;;;;;;5044585;28;20111;-77
2021/03/23 07:55:35;;;;;;;41.43;24.47;;;6.50;92.70;;;;;;5040757;28;20094;-78
2021/03/23 07:58:04;;;;;;;47.73;26.80;;;6.50;92.80;;;;;;5044774;28;20312;-80
2021/03/23 08:00:57;;;;;;;46.97;27.00;;;6.60;92.90;;;;;;5036222;28;20041;-79
2021/03/23 08:03:32;;;;;;;49.70;27.50;;;6.70;92.80;;;;;;5039687;28;20033;-79
2021/03/23 08:06:12;;;;;;;51.00;28.07;;;6.90;92.80;;;;;;5032422;28;20114;-80
2021/03/23 08:09:06;;;;;;;53.57;30.57;;;7.00;92.90;;;;;;5044432;28;20350;-80
2021/03/23 08:12:06;;;;;;;58.67;32.20;;;7.10;92.90;;;;;;5058848;28;20053;-79
2021/03/23 08:14:55;;;;;;;55.05;31.27;;;7.10;92.60;;;;;;5057403;28;20029;-79
2021/03/23 08:17:59;;;;;;;54.23;33.53;;;7.10;92.70;;;;;;5041714;28;20037;-79
2021/03/23 08:20:52;;;;;;;65.07;33.90;;;7.10;92.70;;;;;;5038498;28;20029;-79
2021/03/23 08:23:33;;;;;;;57.30;34.47;;;7.10;93.00;;;;;;5041653;28;20535;-79
2021/03/23 08:26:17;;;;;;;;;;;7.10;92.90;;;;;;5036269;28;20045;-80
2021/03/23 08:29:06;;;;;;;58.57;33.30;;;7.20;93.00;;;;;;5045754;28;20439;-79
2021/03/23 08:32:15;;;;;;;58.63;33.33;;;7.30;92.90;;;;;;5017900;28;20254;-78
2021/03/23 08:35:05;;;;;;;54.37;32.70;;;7.40;92.70;;;;;;5040127;28;20037;-79
2021/03/23 08:37:37;;;;;;;;;;;7.50;92.80;;;;;;5039105;28;20041;-80
2021/03/23 08:40:26;;;;;;;58.03;32.70;;;7.50;92.60;;;;;;5043820;28;19931;-81
2021/03/23 08:42:52;;;;;;;62.87;38.37;;;7.60;92.40;;;;;;5043034;28;20051;-79
2021/03/23 08:45:23;;;;;;;58.67;38.07;;;7.60;92.20;;;;;;5026862;28;20068;-79
2021/03/23 08:48:02;;;;;;;58.73;38.67;;;7.60;92.30;;;;;;5042764;28;20045;-79
2021/03/23 08:50:36;;;;;;;57.60;35.97;;;7.50;92.30;;;;;;5040780;28;20073;-79
2021/03/23 08:53:05;;;;;;;58.47;36.13;;;7.70;92.40;;;;;;5041453;28;20071;-80
2021/03/23 08:55:31;;;;;;;59.17;36.43;;;7.80;92.30;;;;;;5025464;28;20060;-79
2021/03/23 08:58:09;;;;;;;55.03;36.00;;;7.90;91.90;;;;;;5027404;28;20483;-78
2021/03/23 09:00:35;;;;;;;58.60;35.53;;;8.00;91.70;;;;;;5043478;28;20120;-79
2021/03/23 09:03:07;;;;;;;63.00;36.43;;;7.90;91.70;;;;;;5040852;28;20123;-79
2021/03/23 09:06:03;;;;;;;62.20;37.47;;;8.00;91.50;;;;;;5045209;28;20051;-78
2021/03/23 09:08:39;;;;;;;57.37;36.17;;;8.00;91.60;;;;;;5035193;28;20088;-79
2021/03/23 09:11:38;;;;;;;50.63;33.37;;;8.10;91.40;;;;;;5044205;28;20567;-79
2021/03/23 09:14:08;;;;;;;52.27;31.43;;;8.10;91.10;;;;;;5045627;28;20403;-80
2021/03/23 09:16:55;;;;;;;51.87;33.17;;;8.20;90.90;;;;;;5041643;28;20033;-80
2021/03/23 09:19:42;;;;;;;52.77;35.63;;;8.30;90.60;;;;;;5041511;28;20033;-80
2021/03/23 09:22:17;;;;;;;50.43;32.43;;;8.40;89.90;;;;;;5042925;28;20053;-80
2021/03/23 09:24:44;;;;;;;53.10;34.23;;;8.50;90.00;;;;;;5044076;28;20071;-71
2021/03/23 09:27:34;;;;;;;52.67;36.77;;;8.60;89.60;;;;;;5043644;28;20041;-72
2021/03/23 09:30:21;;;;;;;43.47;28.42;;;8.70;90.60;;;;;;5030859;28;20064;-71
2021/03/23 09:33:22;;;;;;;44.00;29.40;;;8.80;88.70;;;;;;5039835;28;20460;-72
2021/03/23 09:36:08;;;;;;;44.37;28.90;;;8.90;86.30;;;;;;5032273;28;20593;-73
2021/03/23 09:38:55;;;;;;;41.53;28.20;;;8.90;85.90;;;;;;5042844;28;20049;-73
2021/03/23 09:41:33;;;;;;;40.57;26.27;;;8.80;86.00;;;;;;5024349;28;20052;-71
2021/03/23 09:44:05;;;;;;;40.90;27.33;;;8.80;85.20;;;;;;5053351;28;20388;-72
2021/03/23 09:46:38;;;;;;;44.77;29.37;;;8.80;86.10;;;;;;5061032;28;20071;-73
2021/03/23 09:49:25;;;;;;;42.00;29.10;;;8.90;85.90;;;;;;5062243;28;20638;-72
2021/03/23 09:52:09;;;;;;;41.63;27.20;;;8.90;86.20;;;;;;5060813;28;20066;-72
2021/03/23 09:54:58;;;;;;;40.43;28.23;;;8.80;85.10;;;;;;5060301;28;20041;-72
2021/03/23 09:57:32;;;;;;;43.60;29.20;;;8.80;85.80;;;;;;5015964;28;20050;-81
2021/03/23 10:00:01;;;;;;;42.67;30.27;;;8.80;85.30;;;;;;5005544;28;20200;-79
2021/03/23 10:02:31;;;;;;;43.10;28.03;;;8.80;85.50;;;;;;5005797;28;20053;-79
2021/03/23 10:05:19;;;;;;;41.28;29.08;;;8.80;85.50;;;;;;5018408;28;20508;-80
2021/03/23 10:07:46;;;;;;;44.10;31.30;;;8.90;84.50;;;;;;5027148;28;20053;-80
2021/03/23 10:10:31;;;;;;;41.27;29.47;;;8.80;84.30;;;;;;5001091;28;20124;-81
2021/03/23 10:12:59;;;;;;;40.27;29.93;;;8.90;85.10;;;;;;5020313;28;20069;-79
2021/03/23 10:15:34;;;;;;;42.20;29.67;;;9.00;84.80;;;;;;5016284;28;20207;-79
2021/03/23 10:18:22;;;;;;;40.77;30.87;;;9.00;84.50;;;;;;5003931;28;20053;-79
2021/03/23 10:20:59;;;;;;;40.17;29.83;;;9.00;83.80;;;;;;5032076;28;20041;-79
2021/03/23 10:23:26;;;;;;;39.67;28.17;;;9.10;84.00;;;;;;5020968;28;20152;-80
2021/03/23 10:25:54;;;;;;;40.70;28.70;;;9.10;83.50;;;;;;5021601;28;20533;-81
2021/03/23 10:28:25;;;;;;;34.93;26.10;;;9.10;82.80;;;;;;5026585;28;20048;-80
2021/03/23 10:31:03;;;;;;;36.80;27.60;;;9.10;81.60;;;;;;5064729;28;20037;-79
2021/03/23 10:33:32;;;;;;;42.37;32.77;;;9.10;81.20;;;;;;5063501;28;20048;-79
2021/03/23 10:36:01;;;;;;;35.13;28.03;;;9.10;81.80;;;;;;5044060;28;20044;-72
2021/03/23 10:38:27;;;;;;;44.10;31.27;;;9.10;82.10;;;;;;5046015;28;20115;-72
2021/03/23 10:40:55;;;;;;;41.20;30.83;;;9.10;82.60;;;;;;5059510;28;20156;-72
2021/03/23 10:43:35;;;;;;;43.63;30.13;;;9.10;82.80;;;;;;5046512;28;20048;-72
2021/03/23 10:46:04;;;;;;;40.60;30.00;;;9.20;82.90;;;;;;5045369;28;20070;-71
2021/03/23 10:48:34;;;;;;;41.43;31.97;;;9.20;83.30;;;;;;5062689;28;20044;-71
2021/03/23 10:51:21;;;;;;;38.43;28.73;;;9.30;83.80;;;;;;5059903;28;20106;-71
2021/03/23 10:54:08;;;;;;;41.10;30.67;;;9.30;82.20;;;;;;5063777;28;20045;-72
2021/03/23 10:56:37;;;;;;;42.83;30.60;;;9.30;81.00;;;;;;5037983;28;20037;-72
2021/03/23 10:59:26;;;;;;;44.17;30.83;;;9.30;81.40;;;;;;5041501;28;20605;-72
2021/03/23 11:02:25;;;;;;;47.67;31.07;;;9.40;81.70;;;;;;5037200;28;20049;-73
2021/03/23 11:05:12;;;;;;;43.47;28.07;;;9.50;82.60;;;;;;5046867;28;20717;-80
2021/03/23 11:08:00;;;;;;;41.77;27.50;;;9.60;81.30;;;;;;5059575;28;20041;-81
2021/03/23 11:10:32;;;;;;;38.27;27.20;;;9.70;81.00;;;;;;5060728;28;20098;-80
2021/03/23 11:12:59;;;;;;;38.83;27.13;;;9.60;79.90;;;;;;5061707;28;20049;-79
2021/03/23 11:15:25;;;;;;;41.60;30.40;;;9.60;81.80;;;;;;5042011;28;20515;-81
2021/03/23 11:17:53;;;;;;;36.30;25.80;;;9.70;81.40;;;;;;5026152;28;20036;-79
2021/03/23 11:20:34;;;;;;;41.37;28.93;;;9.70;81.80;;;;;;5053167;28;20040;-80
2021/03/23 11:23:03;;;;;;;40.03;27.83;;;9.70;82.40;;;;;;5046600;28;20036;-80
2021/03/23 11:25:29;;;;;;;45.03;31.97;;;9.80;81.60;;;;;;5062463;28;20900;-80
2021/03/23 11:27:56;;;;;;;45.50;30.23;;;9.80;81.80;;;;;;5043566;28;20606;-80
2021/03/23 11:30:23;;;;;;;48.40;31.80;;;9.90;82.50;;;;;;5043508;28;20059;-80
2021/03/23 11:32:49;;;;;;;47.10;33.27;;;9.80;81.20;;;;;;5056874;28;20047;-80
2021/03/23 11:35:17;;;;;;;46.50;32.67;;;9.70;82.00;;;;;;5038085;28;20040;-78
2021/03/23 11:37:43;;;;;;;48.77;33.50;;;9.60;81.20;;;;;;5051856;28;20033;-80
2021/03/23 11:40:09;;;;;;;48.77;32.77;;;9.50;81.30;;;;;;5022959;28;20150;-79
2021/03/23 11:42:47;;;;;;;47.63;35.37;;;9.40;81.00;;;;;;5058432;28;20133;-80
2021/03/23 11:45:19;;;;;;;49.27;33.97;;;9.40;81.80;;;;;;5043239;28;20139;-79
2021/03/23 11:48:12;;;;;;;53.70;34.03;;;9.40;82.70;;;;;;5066003;28;20163;-80
2021/03/23 11:50:41;;;;;;;45.87;32.10;;;9.60;82.60;;;;;;5062338;28;20051;-82
2021/03/23 11:53:08;;;;;;;51.40;34.43;;;9.50;81.30;;;;;;5064578;28;20528;-80
2021/03/23 11:55:45;;;;;;;53.43;37.30;;;9.50;82.50;;;;;;5060481;28;20044;-80
2021/03/23 11:58:12;;;;;;;54.03;33.10;;;9.50;82.50;;;;;;5056585;28;20589;-81
2021/03/23 12:00:38;;;;;;;52.33;35.03;;;9.50;82.70;;;;;;5044414;28;20374;-80
2021/03/23 12:03:08;;;;;;;53.47;35.60;;;9.50;83.60;;;;;;5050400;28;20043;-80
2021/03/23 12:05:37;;;;;;;55.33;37.90;;;9.50;84.00;;;;;;5036768;28;20284;-79
2021/03/23 12:08:21;;;;;;;57.87;36.43;;;9.50;83.00;;;;;;5066149;28;20104;-79
2021/03/23 12:11:25;;;;;;;55.57;36.00;;;9.70;83.50;;;;;;5062352;28;20097;-79
2021/03/23 12:14:29;;;;;;;55.80;34.77;;;9.70;82.60;;;;;;5068033;28;20044;-80
2021/03/23 12:17:10;;;;;;;48.47;31.57;;;9.70;82.70;;;;;;5057678;28;20036;-80
2021/03/23 12:19:40;;;;;;;52.70;36.57;;;9.60;81.00;;;;;;5048135;28;20494;-72
2021/03/23 12:22:09;;;;;;;51.90;35.55;;;9.60;81.80;;;;;;5049626;28;20045;-72
2021/03/23 12:24:35;;;;;;;50.57;32.67;;;9.60;81.90;;;;;;5046733;28;20098;-72
2021/03/23 12:27:03;;;;;;;50.90;31.57;;;9.70;82.20;;;;;;5051893;28;20097;-71
2021/03/23 12:29:29;;;;;;;52.97;33.70;;;9.70;82.30;;;;;;5048303;28;20040;-71
2021/03/23 12:31:55;;;;;;;52.83;36.10;;;9.70;81.50;;;;;;5066325;28;20048;-72
2021/03/23 12:34:21;;;;;;;53.93;34.93;;;9.70;80.80;;;;;;5065105;28;20036;-71
2021/03/23 12:36:47;;;;;;;55.30;36.43;;;9.80;82.70;;;;;;5046470;28;20383;-72
2021/03/23 12:39:16;;;;;;;50.20;36.13;;;9.90;82.30;;;;;;5064860;28;20464;-72
2021/03/23 12:41:43;;;;;;;49.43;31.03;;;10.00;82.20;;;;;;5062702;28;20390;-72
2021/03/23 12:44:09;;;;;;;49.37;33.20;;;10.10;81.20;;;;;;5043449;28;20069;-71
2021/03/23 12:46:35;;;;;;;50.17;36.57;;;10.10;80.00;;;;;;5040071;28;20067;-72
2021/03/23 12:49:02;;;;;;;51.97;36.03;;;10.10;78.70;;;;;;5062104;28;20037;-71
2021/03/23 12:51:51;;;;;;;53.20;37.40;;;10.00;79.50;;;;;;5046544;28;20037;-71
2021/03/23 12:54:38;;;;;;;50.77;35.50;;;10.00;77.80;;;;;;5045338;28;20068;-71
2021/03/23 12:57:14;;;;;;;52.87;36.33;;;9.90;77.80;;;;;;5043014;28;20476;-72
2021/03/23 12:59:40;;;;;;;52.23;33.47;;;9.80;77.60;;;;;;5041692;28;20128;-73
2021/03/23 13:02:07;;;;;;;51.87;35.80;;;9.90;78.00;;;;;;5045512;28;20540;-72
2021/03/23 13:04:32;;;;;;;57.60;37.20;;;10.00;78.30;;;;;;5041582;28;20085;-71
2021/03/23 13:06:59;;;;;;;54.20;37.13;;;10.20;79.60;;;;;;5045154;28;20100;-72
2021/03/23 13:09:26;;;;;;;52.30;32.80;;;10.40;78.90;;;;;;5045119;28;21143;-73
2021/03/23 13:11:53;;;;;;;49.73;33.73;;;10.60;77.10;;;;;;5040976;28;20079;-71
2021/03/23 13:14:26;;;;;;;50.07;32.73;;;10.70;77.60;;;;;;5039659;28;20034;-73